Time;durP1;ratioP1;P1;durP2;ratioP2;P2;SDS_P1;SDS_P2;PMS_P1;PMS_P2;Temp;Humidity;BMP_temperature;BMP_pressure;BME280_temperature;BME280_humidity;BME280_pressure;Samples;Min_cycle;Max_cycle;Signal;HPM_P1;HPM_P2
2022/10/02 00:01:39;;;;;;;11.65;4.30;;;10.20;99.90;;;;;;5053744;28;20047;-63
2022/10/02 00:04:09;;;;;;;14.48;4.30;;;10.00;99.90;;;;;;5074693;28;20047;-62
2022/10/02 00:06:48;;;;;;;11.68;3.58;;;10.00;99.90;;;;;;5076281;28;20050;-63
2022/10/02 00:09:30;;;;;;;13.75;3.78;;;9.80;99.90;;;;;;5086334;28;20414;-62
2022/10/02 00:11:58;;;;;;;11.75;3.60;;;9.80;99.90;;;;;;5081186;28;20044;-63
2022/10/02 00:14:27;;;;;;;12.48;3.75;;;9.70;99.90;;;;;;5082324;28;20399;-62
2022/10/02 00:16:56;;;;;;;11.10;3.58;;;9.70;99.90;;;;;;5083566;28;20378;-62
2022/10/02 00:19:22;;;;;;;12.45;4.07;;;9.60;99.90;;;;;;5081722;28;20040;-63
2022/10/02 00:22:11;;;;;;;6.85;3.22;;;9.50;99.90;;;;;;5079133;28;20109;-63
2022/10/02 00:24:45;;;;;;;18.73;4.57;;;9.50;99.90;;;;;;5082406;28;20074;-62
2022/10/02 00:27:51;;;;;;;10.45;4.05;;;9.60;99.90;;;;;;5073604;28;20402;-63
2022/10/02 00:30:17;;;;;;;16.58;4.68;;;9.80;99.90;;;;;;5070899;28;20040;-63
2022/10/02 00:33:10;;;;;;;13.52;4.93;;;9.70;99.90;;;;;;5082288;28;20193;-62
2022/10/02 00:35:41;;;;;;;16.83;5.50;;;9.90;99.90;;;;;;5081405;28;20139;-62
2022/10/02 00:38:09;;;;;;;19.27;5.15;;;9.90;99.90;;;;;;5079730;28;20624;-63
2022/10/02 00:41:06;;;;;;;15.65;5.15;;;9.90;99.90;;;;;;5082348;28;20085;-63
2022/10/02 00:43:42;;;;;;;17.58;5.35;;;10.00;99.90;;;;;;5073973;28;20132;-62
2022/10/02 00:46:26;;;;;;;19.35;5.25;;;10.10;99.90;;;;;;5083207;28;20177;-63
2022/10/02 00:49:15;;;;;;;17.52;5.05;;;10.00;99.90;;;;;;5081039;28;20063;-63
2022/10/02 00:52:02;;;;;;;15.57;5.28;;;10.10;99.90;;;;;;5053208;28;20450;-62
2022/10/02 00:54:52;;;;;;;18.40;5.00;;;10.10;99.90;;;;;;5083801;28;20044;-62
2022/10/02 00:57:43;;;;;;;16.33;5.07;;;10.20;99.90;;;;;;5075906;28;20036;-63
2022/10/02 01:00:15;;;;;;;15.23;5.50;;;10.10;99.90;;;;;;5087083;28;20044;-62
2022/10/02 01:03:17;;;;;;;19.25;5.00;;;10.10;99.90;;;;;;5071512;28;20471;-62
2022/10/02 01:05:43;;;;;;;20.83;5.00;;;10.10;99.90;;;;;;5084772;28;20062;-63
2022/10/02 01:08:09;;;;;;;16.95;4.78;;;10.10;99.90;;;;;;5084566;28;20758;-63
2022/10/02 01:10:37;;;;;;;13.00;4.38;;;10.10;99.90;;;;;;5071429;28;20047;-63
2022/10/02 01:13:03;;;;;;;16.40;4.22;;;10.20;99.90;;;;;;5081097;28;20107;-62
2022/10/02 01:15:33;;;;;;;15.55;4.10;;;10.10;99.90;;;;;;5089430;28;20043;-62
2022/10/02 01:18:01;;;;;;;15.93;3.80;;;10.30;99.90;;;;;;5085929;28;20119;-62
2022/10/02 01:20:35;;;;;;;12.95;4.07;;;10.20;99.90;;;;;;5061606;28;20113;-62
2022/10/02 01:23:13;;;;;;;17.55;4.05;;;10.40;99.90;;;;;;5083898;28;20367;-62
2022/10/02 01:25:39;;;;;;;12.65;3.50;;;10.30;99.90;;;;;;5083096;28;20036;-63
2022/10/02 01:28:05;;;;;;;12.00;3.28;;;10.40;99.90;;;;;;5098547;28;20424;-63
2022/10/02 01:30:32;;;;;;;12.18;3.50;;;10.40;99.90;;;;;;5085050;28;20035;-62
2022/10/02 01:33:00;;;;;;;14.15;3.72;;;10.30;99.90;;;;;;5086258;28;20093;-62
2022/10/02 01:35:32;;;;;;;16.10;3.55;;;10.30;99.90;;;;;;5086957;28;20089;-62
2022/10/02 01:38:01;;;;;;;16.20;3.80;;;10.30;99.90;;;;;;5077098;28;20040;-63
2022/10/02 01:40:30;;;;;;;12.80;3.63;;;10.40;99.90;;;;;;5082340;28;20085;-63
2022/10/02 01:43:03;;;;;;;10.23;2.80;;;10.40;99.90;;;;;;5077473;28;20043;-62
2022/10/02 01:46:07;;;;;;;8.25;3.00;;;10.30;99.90;;;;;;5084558;28;20043;-64
2022/10/02 01:48:42;;;;;;;12.05;3.22;;;10.30;99.90;;;;;;4994801;28;20049;-63
2022/10/02 01:51:26;;;;;;;15.07;3.70;;;10.20;99.90;;;;;;4996159;28;20048;-64
2022/10/02 01:54:13;;;;;;;11.25;3.10;;;10.30;99.90;;;;;;5051354;28;20064;-63
2022/10/02 01:56:54;;;;;;;11.85;3.00;;;10.20;99.90;;;;;;5078230;28;20052;-62
2022/10/02 01:59:30;;;;;;;;;;;10.20;99.90;;;;;;5087386;28;20178;-62
2022/10/02 02:02:30;;;;;;;8.18;3.45;;;10.30;99.90;;;;;;5065850;28;19924;-62
2022/10/02 02:04:58;;;;;;;19.00;3.33;;;10.30;99.90;;;;;;5065278;28;20046;-63
2022/10/02 02:07:45;;;;;;;12.23;3.60;;;10.40;99.90;;;;;;5077977;28;20024;-63
2022/10/02 02:10:37;;;;;;;10.50;3.22;;;10.40;99.90;;;;;;5084320;28;20036;-63
2022/10/02 02:13:45;;;;;;;9.73;2.95;;;10.40;99.90;;;;;;5045798;28;20463;-62
2022/10/02 02:16:23;;;;;;;13.07;3.10;;;10.30;99.90;;;;;;5082912;28;20052;-62
2022/10/02 02:19:01;;;;;;;13.65;3.28;;;10.30;99.90;;;;;;5088902;28;20051;-61
2022/10/02 02:21:33;;;;;;;8.00;3.45;;;10.40;99.90;;;;;;5080982;28;20099;-62
2022/10/02 02:24:04;;;;;;;14.93;3.97;;;10.50;99.90;;;;;;5084119;28;20028;-62
2022/10/02 02:26:31;;;;;;;12.90;3.50;;;10.40;99.90;;;;;;5083927;28;20127;-63
2022/10/02 02:29:01;;;;;;;15.55;3.33;;;10.50;99.90;;;;;;5063939;28;20036;-63
2022/10/02 02:31:33;;;;;;;12.80;3.45;;;10.50;99.90;;;;;;5087445;28;20036;-62
2022/10/02 02:34:03;;;;;;;11.40;3.50;;;10.50;99.90;;;;;;5086541;28;20667;-63
2022/10/02 02:36:35;;;;;;;14.95;3.45;;;10.50;99.90;;;;;;5059986;28;20068;-63
2022/10/02 02:39:07;;;;;;;10.45;3.50;;;10.40;99.90;;;;;;5064352;28;20556;-62
2022/10/02 02:41:54;;;;;;;16.17;3.75;;;10.50;99.90;;;;;;5078183;28;20377;-62
2022/10/02 02:44:32;;;;;;;17.38;3.60;;;10.50;99.90;;;;;;5059536;28;20115;-62
2022/10/02 02:47:12;;;;;;;15.27;3.75;;;10.50;99.90;;;;;;5085564;28;20040;-62
2022/10/02 02:49:51;;;;;;;13.73;3.97;;;10.60;99.90;;;;;;5082111;28;20040;-62
2022/10/02 02:52:21;;;;;;;18.83;4.40;;;10.50;99.90;;;;;;5080043;28;20388;-62
2022/10/02 02:54:55;;;;;;;13.80;3.67;;;10.50;99.90;;;;;;5081752;28;20052;-63
2022/10/02 02:57:27;;;;;;;14.45;4.15;;;10.50;99.90;;;;;;5061608;28;20051;-62
2022/10/02 02:59:57;;;;;;;17.48;3.80;;;10.50;99.90;;;;;;5081372;28;20048;-62
2022/10/02 03:02:23;;;;;;;13.25;3.67;;;10.50;99.90;;;;;;5084263;28;20479;-62
2022/10/02 03:04:48;;;;;;;20.13;3.90;;;10.50;99.90;;;;;;5064618;28;20036;-63
2022/10/02 03:07:16;;;;;;;15.13;3.65;;;10.40;99.90;;;;;;5079506;28;20032;-62
2022/10/02 03:09:50;;;;;;;16.90;4.13;;;10.50;99.90;;;;;;5067691;28;20051;-62
2022/10/02 03:12:34;;;;;;;20.10;4.00;;;10.50;99.90;;;;;;5058732;28;20067;-63
2022/10/02 03:15:10;;;;;;;14.65;3.72;;;10.60;99.90;;;;;;5086042;28;20043;-62
2022/10/02 03:18:37;;;;;;;18.58;4.85;;;10.70;99.90;;;;;;5075350;28;20048;-63
2022/10/02 03:21:26;;;;;;;13.38;3.97;;;10.70;99.90;;;;;;5040063;28;20045;-63
2022/10/02 03:24:23;;;;;;;20.13;4.60;;;10.70;99.90;;;;;;5078107;28;20160;-63
2022/10/02 03:27:01;;;;;;;11.23;3.20;;;10.80;99.90;;;;;;5049250;28;20051;-63
2022/10/02 03:29:55;;;;;;;18.92;3.80;;;10.80;99.90;;;;;;5077852;28;20133;-62
2022/10/02 03:32:23;;;;;;;12.27;3.97;;;10.80;99.90;;;;;;5076871;28;20060;-62
2022/10/02 03:34:49;;;;;;;15.02;3.92;;;10.80;99.90;;;;;;5087707;28;20083;-64
2022/10/02 03:37:15;;;;;;;16.00;4.47;;;10.90;99.90;;;;;;5059872;28;20409;-62
2022/10/02 03:39:44;;;;;;;17.38;4.10;;;10.90;99.90;;;;;;5083210;28;20047;-62
2022/10/02 03:42:13;;;;;;;17.67;4.05;;;10.90;99.90;;;;;;5062277;28;20043;-62
2022/10/02 03:44:38;;;;;;;12.43;3.72;;;10.90;99.90;;;;;;5083129;28;20059;-61
2022/10/02 03:47:04;;;;;;;13.30;3.30;;;10.80;99.90;;;;;;5062555;28;20063;-62
2022/10/02 03:49:29;;;;;;;16.65;3.50;;;10.80;99.90;;;;;;5079479;28;20032;-62
2022/10/02 03:51:55;;;;;;;16.48;4.15;;;10.80;99.90;;;;;;5081183;28;20141;-62
2022/10/02 03:54:21;;;;;;;12.65;3.30;;;10.90;99.90;;;;;;5080708;28;20031;-63
2022/10/02 03:57:02;;;;;;;15.88;3.72;;;10.80;99.90;;;;;;5077274;28;20108;-62
2022/10/02 03:59:30;;;;;;;;;;;10.90;99.90;;;;;;5080113;28;20036;-63
2022/10/02 04:01:59;;;;;;;17.15;3.55;;;10.90;99.90;;;;;;5082898;28;19965;-62
2022/10/02 04:04:36;;;;;;;13.48;3.17;;;10.80;99.90;;;;;;5083180;28;20036;-62
2022/10/02 04:07:10;;;;;;;16.05;3.63;;;10.90;99.90;;;;;;5079991;28;20028;-62
2022/10/02 04:09:45;;;;;;;14.05;3.25;;;10.80;99.90;;;;;;5065624;28;20065;-63
2022/10/02 04:12:39;;;;;;;15.63;3.80;;;10.90;99.90;;;;;;5048259;28;20071;-62
2022/10/02 04:15:13;;;;;;;12.75;3.33;;;10.90;99.90;;;;;;5080476;28;20067;-62
2022/10/02 04:17:47;;;;;;;12.95;3.30;;;10.80;99.90;;;;;;5084952;28;20040;-63
2022/10/02 04:20:27;;;;;;;11.02;2.78;;;10.80;99.90;;;;;;5063880;28;20459;-62
2022/10/02 04:22:53;;;;;;;13.18;3.42;;;10.70;99.90;;;;;;5080763;28;20036;-62
2022/10/02 04:25:21;;;;;;;14.88;2.88;;;10.70;99.90;;;;;;5061607;28;20054;-62
2022/10/02 04:28:00;;;;;;;11.32;3.55;;;10.70;99.90;;;;;;5080749;28;20028;-63
2022/10/02 04:30:25;;;;;;;12.50;2.95;;;10.60;99.90;;;;;;5079284;28;20032;-62
2022/10/02 04:32:52;;;;;;;10.95;2.85;;;10.50;99.90;;;;;;5084017;28;20042;-62
2022/10/02 04:35:37;;;;;;;13.30;3.20;;;10.50;99.90;;;;;;5082435;28;20118;-62
2022/10/02 04:38:16;;;;;;;16.75;3.17;;;10.50;99.90;;;;;;5072180;28;20044;-62
2022/10/02 04:41:06;;;;;;;18.08;3.10;;;10.60;99.90;;;;;;5082389;28;20036;-62
2022/10/02 04:44:16;;;;;;;12.07;2.88;;;10.40;99.90;;;;;;5080745;28;20063;-62
2022/10/02 04:47:03;;;;;;;6.43;2.97;;;10.50;99.90;;;;;;5079734;28;20047;-62
2022/10/02 04:49:58;;;;;;;14.55;2.75;;;10.50;99.90;;;;;;5076330;28;20060;-63
2022/10/02 04:52:29;;;;;;;14.77;2.40;;;10.40;99.90;;;;;;5083757;28;20446;-62
2022/10/02 04:55:16;;;;;;;14.88;2.75;;;10.30;99.90;;;;;;5080116;28;20116;-63
2022/10/02 04:57:55;;;;;;;10.40;2.50;;;10.30;99.90;;;;;;5073123;28;20075;-62
2022/10/02 05:00:22;;;;;;;13.88;3.28;;;10.30;99.90;;;;;;5058007;28;20089;-62
2022/10/02 05:02:48;;;;;;;12.82;2.80;;;10.20;99.90;;;;;;5082392;28;20048;-62
2022/10/02 05:05:39;;;;;;;12.52;2.47;;;10.30;99.90;;;;;;5081668;28;20050;-63
2022/10/02 05:08:34;;;;;;;14.30;2.88;;;10.20;99.90;;;;;;5080091;28;20032;-63
2022/10/02 05:11:21;;;;;;;14.10;2.65;;;10.10;99.90;;;;;;5083398;28;20084;-62
2022/10/02 05:13:46;;;;;;;7.57;2.58;;;10.20;99.90;;;;;;5074642;28;20067;-62
2022/10/02 05:16:29;;;;;;;11.13;2.60;;;10.10;99.90;;;;;;5084647;28;20071;-62
2022/10/02 05:19:14;;;;;;;9.13;2.10;;;10.10;99.90;;;;;;5080511;28;20040;-62
2022/10/02 05:21:59;;;;;;;12.90;2.45;;;10.10;99.90;;;;;;5079487;28;20044;-63
2022/10/02 05:25:03;;;;;;;12.95;2.70;;;10.00;99.90;;;;;;5055815;28;20071;-63
2022/10/02 05:28:05;;;;;;;11.23;2.03;;;10.10;99.90;;;;;;5079487;28;20122;-62
2022/10/02 05:31:12;;;;;;;15.40;2.60;;;10.10;99.90;;;;;;5082335;28;20415;-62
2022/10/02 05:33:46;;;;;;;10.10;2.53;;;10.10;99.90;;;;;;5071628;28;20055;-62
2022/10/02 05:36:39;;;;;;;15.35;2.70;;;10.00;99.90;;;;;;5055907;28;20036;-62
2022/10/02 05:39:07;;;;;;;14.52;2.75;;;10.10;99.90;;;;;;5072200;28;20036;-63
2022/10/02 05:41:40;;;;;;;8.93;2.40;;;10.00;99.90;;;;;;5081637;28;20046;-62
2022/10/02 05:44:29;;;;;;;12.88;3.15;;;10.00;99.90;;;;;;5076314;28;20046;-62
2022/10/02 05:47:04;;;;;;;13.02;2.78;;;9.90;99.90;;;;;;5047687;28;20043;-62
2022/10/02 05:49:54;;;;;;;15.05;2.83;;;10.00;99.90;;;;;;5079021;28;20101;-63
2022/10/02 05:52:25;;;;;;;16.27;3.10;;;10.00;99.90;;;;;;5076956;28;20507;-62
2022/10/02 05:55:06;;;;;;;12.98;2.95;;;10.00;99.90;;;;;;5076078;28;20071;-62
2022/10/02 05:57:46;;;;;;;17.13;3.08;;;10.10;99.90;;;;;;5075745;28;21270;-62
2022/10/02 06:00:23;;;;;;;14.18;3.47;;;10.10;99.90;;;;;;5084005;28;20039;-63
2022/10/02 06:03:14;;;;;;;19.02;3.20;;;10.00;99.90;;;;;;5071499;28;20105;-63
2022/10/02 06:06:03;;;;;;;20.60;3.00;;;10.10;99.90;;;;;;5078848;28;20047;-62
2022/10/02 06:08:41;;;;;;;13.15;3.13;;;10.10;99.90;;;;;;5079666;28;20490;-62
2022/10/02 06:11:14;;;;;;;10.77;2.83;;;10.10;99.90;;;;;;5086629;28;20031;-62
2022/10/02 06:13:45;;;;;;;10.00;2.65;;;10.10;99.90;;;;;;5083178;28;20036;-63
2022/10/02 06:16:31;;;;;;;13.40;3.17;;;10.10;99.90;;;;;;5084999;28;20062;-63
2022/10/02 06:19:06;;;;;;;12.20;3.10;;;10.30;99.90;;;;;;5088122;28;20044;-63
2022/10/02 06:21:38;;;;;;;14.18;2.55;;;10.40;99.90;;;;;;5084490;28;20058;-63
2022/10/02 06:24:15;;;;;;;12.75;2.92;;;10.50;99.90;;;;;;5079994;28;20161;-62
2022/10/02 06:26:59;;;;;;;14.70;2.47;;;10.50;99.90;;;;;;5079997;28;20040;-63
2022/10/02 06:29:58;;;;;;;11.85;2.60;;;10.60;99.90;;;;;;5085681;28;20036;-62
2022/10/02 06:32:54;;;;;;;11.27;2.70;;;10.60;99.90;;;;;;5071817;28;20055;-63
2022/10/02 06:35:53;;;;;;;14.73;2.90;;;10.60;99.90;;;;;;5073490;28;20055;-62
2022/10/02 06:38:36;;;;;;;15.45;2.70;;;10.60;99.90;;;;;;5075672;28;20436;-62
2022/10/02 06:41:21;;;;;;;10.88;2.50;;;10.70;99.90;;;;;;5066197;28;20078;-62
2022/10/02 06:43:49;;;;;;;8.75;2.50;;;10.70;99.90;;;;;;5065278;28;20048;-63
2022/10/02 06:46:31;;;;;;;12.48;2.72;;;10.80;99.90;;;;;;5086079;28;20433;-62
2022/10/02 06:49:35;;;;;;;13.80;2.80;;;10.90;99.90;;;;;;5089112;28;20043;-62
2022/10/02 06:52:06;;;;;;;9.15;2.60;;;10.90;99.90;;;;;;5069793;28;20067;-63
2022/10/02 06:55:03;;;;;;;13.73;3.08;;;11.10;99.90;;;;;;5064398;28;20044;-62
2022/10/02 06:57:41;;;;;;;10.68;2.83;;;11.30;99.90;;;;;;5085105;28;20040;-63
2022/10/02 07:00:11;;;;;;;11.77;2.88;;;11.50;99.90;;;;;;5070665;28;20639;-62
2022/10/02 07:02:58;;;;;;;12.93;2.40;;;11.70;99.90;;;;;;5089468;28;20036;-63
2022/10/02 07:06:02;;;;;;;9.80;2.17;;;11.80;99.90;;;;;;5088257;28;20059;-63
2022/10/02 07:08:48;;;;;;;8.85;2.30;;;12.00;99.90;;;;;;5054194;28;20126;-62
2022/10/02 07:11:19;;;;;;;11.50;2.60;;;12.20;99.90;;;;;;5088135;28;20353;-62
2022/10/02 07:14:06;;;;;;;12.48;2.40;;;12.30;99.90;;;;;;5082760;28;20392;-63
2022/10/02 07:16:39;;;;;;;10.32;2.17;;;12.60;99.90;;;;;;5084437;28;20039;-63
2022/10/02 07:19:24;;;;;;;11.45;2.20;;;12.50;99.90;;;;;;5087754;28;20028;-62
2022/10/02 07:22:26;;;;;;;9.60;2.15;;;12.50;99.90;;;;;;5054247;28;20136;-61
2022/10/02 07:25:29;;;;;;;8.27;2.38;;;12.60;99.90;;;;;;5084648;28;20481;-63
2022/10/02 07:28:29;;;;;;;11.85;2.67;;;12.80;99.90;;;;;;5076419;28;20036;-62
2022/10/02 07:31:45;;;;;;;12.82;2.00;;;13.00;99.90;;;;;;5087365;28;20117;-62
2022/10/02 07:34:33;;;;;;;12.68;3.00;;;13.40;99.90;;;;;;5060144;28;20052;-62
2022/10/02 07:37:07;;;;;;;8.13;2.17;;;13.30;99.90;;;;;;5087085;28;20132;-63
2022/10/02 07:40:02;;;;;;;11.95;2.05;;;13.40;99.90;;;;;;5081877;28;20091;-61
2022/10/02 07:42:34;;;;;;;11.75;2.40;;;13.20;99.90;;;;;;5080142;28;20538;-62
2022/10/02 07:45:14;;;;;;;10.73;2.25;;;13.10;99.90;;;;;;5081833;28;20047;-62
2022/10/02 07:48:05;;;;;;;12.88;2.60;;;12.90;99.90;;;;;;5078205;28;20044;-63
2022/10/02 07:50:37;;;;;;;11.85;2.00;;;12.80;99.90;;;;;;5086654;28;20067;-61
2022/10/02 07:53:16;;;;;;;13.98;2.50;;;12.80;99.90;;;;;;5088806;28;20054;-63
2022/10/02 07:55:47;;;;;;;12.27;2.63;;;12.80;99.90;;;;;;5081720;28;20060;-63
2022/10/02 07:58:20;;;;;;;9.43;2.13;;;12.70;99.90;;;;;;5083417;28;20097;-63
2022/10/02 08:00:53;;;;;;;12.05;2.55;;;12.60;99.90;;;;;;5086757;28;20066;-62
2022/10/02 08:03:26;;;;;;;8.70;2.33;;;12.50;99.90;;;;;;5066392;28;20052;-62
2022/10/02 08:05:54;;;;;;;14.23;2.45;;;12.40;99.90;;;;;;5075697;28;20044;-62
2022/10/02 08:08:37;;;;;;;8.13;1.90;;;12.30;99.90;;;;;;5085190;28;20131;-62
2022/10/02 08:11:15;;;;;;;11.13;2.50;;;12.30;99.90;;;;;;5081096;28;20040;-62
2022/10/02 08:13:55;;;;;;;12.48;1.98;;;12.20;99.90;;;;;;5075359;28;20040;-62
2022/10/02 08:16:26;;;;;;;5.97;1.80;;;12.30;99.90;;;;;;5070317;28;20052;-62
2022/10/02 08:18:54;;;;;;;;;;;12.60;99.90;;;;;;5069509;28;20036;-61
2022/10/02 08:21:23;;;;;;;13.93;3.72;;;12.90;99.90;;;;;;5084085;28;19916;-62
2022/10/02 08:24:01;;;;;;;8.02;2.60;;;13.10;99.90;;;;;;5086736;28;20055;-62
2022/10/02 08:26:33;;;;;;;9.55;2.58;;;13.10;99.90;;;;;;5084979;28;20152;-63
2022/10/02 08:29:29;;;;;;;12.05;2.15;;;13.00;99.90;;;;;;5071255;28;20040;-62
2022/10/02 08:31:55;;;;;;;9.20;2.83;;;13.00;99.90;;;;;;5065520;28;20515;-61
2022/10/02 08:34:23;;;;;;;9.90;2.60;;;13.00;99.90;;;;;;5088826;28;20162;-61
2022/10/02 08:37:13;;;;;;;9.68;2.20;;;13.10;99.90;;;;;;5074320;28;20121;-62
2022/10/02 08:39:57;;;;;;;11.00;2.50;;;13.20;99.90;;;;;;5087062;28;20040;-62
2022/10/02 08:42:55;;;;;;;11.13;2.42;;;13.30;99.90;;;;;;5079654;28;20048;-60
2022/10/02 08:45:46;;;;;;;14.48;2.47;;;13.60;99.90;;;;;;5086851;28;20058;-64
2022/10/02 08:48:37;;;;;;;11.10;2.50;;;13.70;99.90;;;;;;5082627;28;20069;-62
2022/10/02 08:51:40;;;;;;;12.10;2.67;;;13.80;99.90;;;;;;5078439;28;20115;-61
2022/10/02 08:54:37;;;;;;;14.65;2.47;;;14.20;99.90;;;;;;5079074;28;20374;-61
2022/10/02 08:57:06;;;;;;;11.90;2.25;;;14.60;99.90;;;;;;5074163;28;20059;-62
2022/10/02 08:59:56;;;;;;;10.65;2.30;;;14.60;99.90;;;;;;5082789;28;20813;-62
2022/10/02 09:02:45;;;;;;;;;;;15.00;99.90;;;;;;5083843;28;20124;-62
2022/10/02 09:05:38;;;;;;;10.55;2.42;;;15.10;99.90;;;;;;5076937;28;20012;-61
2022/10/02 09:08:57;;;;;;;7.25;1.83;;;15.00;99.90;;;;;;5080343;28;20464;-61
2022/10/02 09:11:45;;;;;;;10.48;2.70;;;14.90;99.90;;;;;;5083469;28;20128;-63
2022/10/02 09:14:42;;;;;;;10.40;1.95;;;14.70;99.90;;;;;;5078920;28;20115;-62
2022/10/02 09:17:36;;;;;;;7.03;1.83;;;14.70;99.90;;;;;;5080586;28;20058;-62
2022/10/02 09:20:37;;;;;;;7.60;1.55;;;14.70;99.90;;;;;;5067946;28;20044;-62
2022/10/02 09:23:12;;;;;;;8.13;1.60;;;14.60;99.90;;;;;;5085522;28;20436;-62
2022/10/02 09:26:13;;;;;;;6.05;1.50;;;14.50;99.90;;;;;;5081703;28;20076;-61
2022/10/02 09:29:02;;;;;;;9.40;1.98;;;14.50;99.90;;;;;;5076508;28;20036;-62
2022/10/02 09:32:02;;;;;;;9.20;1.98;;;14.40;99.90;;;;;;5079462;28;20371;-62
2022/10/02 09:35:05;;;;;;;12.50;2.60;;;14.30;99.90;;;;;;5080022;28;20153;-61
2022/10/02 09:37:43;;;;;;;9.55;2.28;;;14.60;99.90;;;;;;5062847;28;20059;-61
2022/10/02 09:40:25;;;;;;;6.85;1.95;;;14.70;99.90;;;;;;5070606;28;20044;-62
2022/10/02 09:43:12;;;;;;;10.55;2.10;;;14.60;99.90;;;;;;5089431;28;20055;-62
2022/10/02 09:45:53;;;;;;;9.23;2.05;;;14.50;99.90;;;;;;5087230;28;20127;-62
2022/10/02 09:48:39;;;;;;;10.10;2.13;;;14.30;99.90;;;;;;5090471;28;20075;-61
2022/10/02 09:51:15;;;;;;;11.70;2.35;;;14.30;99.90;;;;;;5089906;28;20542;-62
2022/10/02 09:53:58;;;;;;;8.23;1.77;;;14.40;99.90;;;;;;5087303;28;20344;-62
2022/10/02 09:57:11;;;;;;;7.55;1.90;;;14.40;99.90;;;;;;5088907;28;20052;-63
2022/10/02 09:59:57;;;;;;;9.13;2.40;;;14.30;99.90;;;;;;5073039;28;20079;-61
2022/10/02 10:02:49;;;;;;;8.45;1.80;;;14.20;99.90;;;;;;5082998;28;20028;-62
2022/10/02 10:05:49;;;;;;;7.32;2.00;;;14.40;99.90;;;;;;5078123;28;20032;-62
2022/10/02 10:09:02;;;;;;;11.90;2.20;;;14.80;99.90;;;;;;5073765;28;20170;-62
2022/10/02 10:11:29;;;;;;;9.07;2.10;;;15.10;99.90;;;;;;5004699;28;20047;-64
2022/10/02 10:14:28;;;;;;;7.85;2.58;;;15.20;99.90;;;;;;5078877;28;20040;-62
2022/10/02 10:17:04;;;;;;;9.70;2.30;;;15.20;99.90;;;;;;5076638;28;20081;-62
2022/10/02 10:20:04;;;;;;;9.02;1.90;;;15.20;99.90;;;;;;5084332;28;20047;-62
2022/10/02 10:22:53;;;;;;;5.13;2.05;;;15.30;99.90;;;;;;5065918;28;20052;-62
2022/10/02 10:25:32;;;;;;;6.47;1.77;;;15.30;99.90;;;;;;5062953;28;20083;-63
2022/10/02 10:28:00;;;;;;;12.40;2.13;;;15.50;99.90;;;;;;5070650;28;20059;-62
2022/10/02 10:30:37;;;;;;;12.15;2.28;;;15.60;99.90;;;;;;5078731;28;20450;-62
2022/10/02 10:33:27;;;;;;;8.48;1.85;;;15.50;99.90;;;;;;5075089;28;20360;-61
2022/10/02 10:36:07;;;;;;;10.77;2.38;;;15.40;99.90;;;;;;5081421;28;20529;-62
2022/10/02 10:39:16;;;;;;;8.75;2.20;;;15.20;99.90;;;;;;5086702;28;20036;-61
2022/10/02 10:41:56;;;;;;;10.05;1.80;;;15.10;99.90;;;;;;5086361;28;20028;-62
2022/10/02 10:45:09;;;;;;;10.75;2.30;;;15.10;99.90;;;;;;5085267;28;20043;-62
2022/10/02 10:48:02;;;;;;;12.25;2.05;;;15.00;99.90;;;;;;5062228;28;20060;-63
2022/10/02 10:50:34;;;;;;;10.05;1.98;;;15.00;99.90;;;;;;5084748;28;20479;-61
2022/10/02 10:53:15;;;;;;;10.57;2.30;;;15.00;99.90;;;;;;5070216;28;20069;-62
2022/10/02 10:55:56;;;;;;;7.57;1.80;;;15.00;99.90;;;;;;5089622;28;20055;-62
2022/10/02 10:58:40;;;;;;;8.63;2.38;;;15.20;99.90;;;;;;5077913;28;20055;-63
2022/10/02 11:01:13;;;;;;;7.13;1.85;;;15.30;99.90;;;;;;5089031;28;20040;-62
2022/10/02 11:03:59;;;;;;;12.23;1.95;;;15.30;99.90;;;;;;5080570;28;20468;-62
2022/10/02 11:06:55;;;;;;;14.15;2.28;;;15.40;99.90;;;;;;5087482;28;20059;-63
2022/10/02 11:09:50;;;;;;;11.07;2.33;;;15.60;99.90;;;;;;5064127;28;20050;-63
2022/10/02 11:12:54;;;;;;;11.20;1.75;;;15.70;99.90;;;;;;5084825;28;20119;-62
2022/10/02 11:15:34;;;;;;;12.27;1.88;;;15.80;99.90;;;;;;5079040;28;20057;-62
2022/10/02 11:18:33;;;;;;;10.13;1.70;;;15.80;99.90;;;;;;5075929;28;20110;-62
2022/10/02 11:21:27;;;;;;;11.30;2.33;;;15.80;99.90;;;;;;5041366;28;20035;-63
2022/10/02 11:23:59;;;;;;;8.38;1.90;;;15.60;99.90;;;;;;5075575;28;20044;-63
2022/10/02 11:26:27;;;;;;;7.95;1.77;;;15.70;99.90;;;;;;5071434;28;20421;-64
2022/10/02 11:28:59;;;;;;;11.32;1.88;;;15.70;99.90;;;;;;5075509;28;20637;-62
2022/10/02 11:31:45;;;;;;;10.80;1.75;;;15.70;99.90;;;;;;5066635;28;20514;-63
2022/10/02 11:34:18;;;;;;;11.25;2.22;;;15.90;99.90;;;;;;5086942;28;20083;-62
2022/10/02 11:37:02;;;;;;;10.43;2.05;;;15.80;99.90;;;;;;5081918;28;20133;-62
2022/10/02 11:40:06;;;;;;;12.55;1.75;;;15.90;99.90;;;;;;5083142;28;20131;-63
2022/10/02 11:42:57;;;;;;;10.15;1.90;;;16.00;99.90;;;;;;5061720;28;20060;-64
2022/10/02 11:45:54;;;;;;;12.40;2.05;;;16.00;99.90;;;;;;5078244;28;20078;-63
2022/10/02 11:48:46;;;;;;;11.60;2.10;;;15.90;99.90;;;;;;5063515;28;20044;-62
2022/10/02 11:51:15;;;;;;;8.55;1.73;;;15.90;99.90;;;;;;5083844;28;20054;-62
2022/10/02 11:54:03;;;;;;;7.35;1.50;;;16.00;99.90;;;;;;5077259;28;20059;-64
2022/10/02 11:56:55;;;;;;;8.93;1.60;;;16.00;99.90;;;;;;5077967;28;20051;-64
2022/10/02 12:00:04;;;;;;;10.48;1.95;;;16.00;99.90;;;;;;5060351;28;20044;-63
2022/10/02 12:02:41;;;;;;;8.65;1.85;;;16.00;99.90;;;;;;5077206;28;20463;-63
2022/10/02 12:05:33;;;;;;;10.15;1.67;;;16.00;99.90;;;;;;5079129;28;20113;-64
2022/10/02 12:08:23;;;;;;;12.43;2.30;;;16.00;99.90;;;;;;5077111;28;20039;-63
2022/10/02 12:11:11;;;;;;;10.43;2.30;;;16.00;99.90;;;;;;5081599;28;20417;-63
2022/10/02 12:14:06;;;;;;;7.72;1.67;;;16.10;99.90;;;;;;5071110;28;20479;-63
2022/10/02 12:16:50;;;;;;;8.77;1.80;;;16.30;99.90;;;;;;5072239;28;20056;-63
2022/10/02 12:19:21;;;;;;;10.35;1.80;;;16.60;99.90;;;;;;5082449;28;20036;-62
2022/10/02 12:27:47;;;;;;;8.15;1.40;;;17.30;99.90;;;;;;5063130;28;20052;-65
2022/10/02 12:30:22;;;;;;;10.43;1.98;;;17.20;99.90;;;;;;5073180;28;20055;-63
2022/10/02 12:33:15;;;;;;;12.50;1.90;;;17.10;99.90;;;;;;5075206;28;20199;-64
2022/10/02 12:35:41;;;;;;;13.35;2.20;;;16.90;99.90;;;;;;5060778;28;20098;-65
2022/10/02 12:38:25;;;;;;;9.63;1.73;;;16.90;99.90;;;;;;5080190;28;20123;-63
2022/10/02 12:41:07;;;;;;;9.52;1.52;;;17.00;99.90;;;;;;5060554;28;20139;-63
2022/10/02 12:43:58;;;;;;;5.18;1.30;;;17.20;99.90;;;;;;5056873;28;20044;-63
2022/10/02 12:46:56;;;;;;;5.75;1.35;;;17.30;99.90;;;;;;5082846;28;20377;-63
2022/10/02 12:49:44;;;;;;;8.18;1.27;;;17.30;99.90;;;;;;5069342;28;20062;-63
2022/10/02 12:52:29;;;;;;;8.73;1.65;;;17.40;99.90;;;;;;5075008;28;20089;-64
2022/10/02 12:55:23;;;;;;;6.53;1.58;;;17.40;99.90;;;;;;5075248;28;20056;-63
2022/10/02 12:58:27;;;;;;;9.00;1.50;;;17.50;99.90;;;;;;5082987;28;20137;-63
2022/10/02 13:01:29;;;;;;;6.80;1.35;;;17.70;99.90;;;;;;5075822;28;20545;-65
2022/10/02 13:04:15;;;;;;;9.55;1.45;;;17.80;99.90;;;;;;5072787;28;20104;-65
2022/10/02 13:07:22;;;;;;;7.43;1.10;;;17.70;99.90;;;;;;5088139;28;20743;-64
2022/10/02 13:10:00;;;;;;;7.35;1.33;;;17.80;99.90;;;;;;5071434;28;20059;-65
2022/10/02 13:12:49;;;;;;;7.22;1.20;;;17.60;99.90;;;;;;5046420;28;20051;-64
2022/10/02 13:15:28;;;;;;;6.78;1.17;;;17.60;99.90;;;;;;5089626;28;20036;-64
2022/10/02 13:18:08;;;;;;;9.27;2.70;;;17.50;99.90;;;;;;5071887;28;20056;-64
2022/10/02 13:20:53;;;;;;;7.18;1.52;;;17.30;99.90;;;;;;5088958;28;20047;-64
2022/10/02 13:23:49;;;;;;;7.47;1.02;;;17.00;99.90;;;;;;5087077;28;20141;-64
2022/10/02 13:26:41;;;;;;;8.00;1.42;;;16.80;99.90;;;;;;5081114;28;20690;-64
2022/10/02 13:29:08;;;;;;;7.47;1.35;;;16.60;99.90;;;;;;5089012;28;20040;-65
2022/10/02 13:31:40;;;;;;;6.65;1.13;;;16.50;99.90;;;;;;5069948;28;20115;-63
2022/10/02 13:34:21;;;;;;;7.88;1.45;;;16.50;99.90;;;;;;5089521;28;20094;-64
2022/10/02 13:36:52;;;;;;;;;;;16.50;99.90;;;;;;5089784;28;20059;-64
2022/10/02 13:39:40;;;;;;;6.88;1.75;;;16.50;99.90;;;;;;5085872;28;19928;-65
2022/10/02 13:42:35;;;;;;;7.93;1.80;;;16.50;99.90;;;;;;5070399;28;20537;-65
2022/10/02 13:45:31;;;;;;;7.40;1.50;;;16.40;99.90;;;;;;5087111;28;20044;-63
2022/10/02 13:48:09;;;;;;;5.70;1.40;;;16.30;99.90;;;;;;5088572;28;20044;-64
2022/10/02 13:50:51;;;;;;;7.90;1.83;;;16.10;99.90;;;;;;5087339;28;20036;-68
2022/10/02 13:53:47;;;;;;;7.15;1.60;;;16.10;99.90;;;;;;5087973;28;20074;-64
2022/10/02 13:56:38;;;;;;;9.45;1.60;;;16.00;99.90;;;;;;5042200;28;20054;-65
2022/10/02 13:59:30;;;;;;;11.30;1.63;;;15.90;99.90;;;;;;5084969;28;20040;-64
2022/10/02 14:01:56;;;;;;;6.60;1.60;;;15.80;99.90;;;;;;5071832;28;20037;-64
2022/10/02 14:04:26;;;;;;;7.13;1.50;;;15.70;99.90;;;;;;5086420;28;20348;-64